Kaaawa, Hawaii
Current Conditions -  °F | °C
As of 12:57 PM on Saturday 20 Dec 2014 (Local Time) from PHNG Reporting Station
Few Clouds Few Clouds  
Wind Chill: 81°   Ceiling: Unl
Heat Index: 83°   Visibility: 10mi
Dew Point: 66°   Wind: 9mph
Humidity: 60%   Direction: 70°ENE
Pressure: 30.01"   Gusts: 17mph
Location:  21.54°N, 157.84°W
Report Text: PHNG 202257Z AUTO 07008G15KT 10SM FEW043 27/19 A3001 RMK AO2 SLP157 T02720189 $
Loading
Personal Weather Stations






























Interactive Weather Map New forecast layout! Learn more

10-Day Weather Forecast

Advertisements
Track Severe Weather on mobile